Time;durP1;ratioP1;P1;durP2;ratioP2;P2;SDS_P1;SDS_P2;PMS_P1;PMS_P2;Temp;Humidity;BMP_temperature;BMP_pressure;BME280_temperature;BME280_humidity;BME280_pressure;Samples;Min_cycle;Max_cycle;Signal;HPM_P1;HPM_P2
2021/07/26 00:01:32;;;;;;;15.50;13.60;;;20.80;90.20;;;;;;5022310;28;20196;-80
2021/07/26 00:04:02;;;;;;;15.30;13.80;;;20.70;90.20;;;;;;5020826;28;20282;-80
2021/07/26 00:06:31;;;;;;;14.13;12.50;;;20.70;90.40;;;;;;5023720;28;20199;-83
2021/07/26 00:09:01;;;;;;;14.97;13.37;;;20.70;90.60;;;;;;5022934;28;20238;-82
2021/07/26 00:11:30;;;;;;;15.03;13.53;;;20.70;90.60;;;;;;5028655;28;20720;-84
2021/07/26 00:13:59;;;;;;;15.17;13.57;;;20.60;90.70;;;;;;5025178;28;20192;-84
2021/07/26 00:16:30;;;;;;;15.00;13.50;;;20.50;91.00;;;;;;5025394;28;20195;-85
2021/07/26 00:19:00;;;;;;;15.77;14.13;;;20.40;91.40;;;;;;5030501;28;20204;-80
2021/07/26 00:21:29;;;;;;;15.23;13.67;;;20.50;91.60;;;;;;5025827;28;20219;-82
2021/07/26 00:23:58;;;;;;;16.17;13.93;;;20.40;91.60;;;;;;5026100;28;20199;-80
2021/07/26 00:26:30;;;;;;;15.53;13.97;;;20.40;91.60;;;;;;5022525;28;20206;-80
2021/07/26 00:28:59;;;;;;;15.17;13.67;;;20.40;91.20;;;;;;5023934;28;20233;-81
2021/07/26 00:31:28;;;;;;;15.90;14.17;;;20.50;90.70;;;;;;5023526;28;20205;-85
2021/07/26 00:34:15;;;;;;;15.60;14.00;;;20.50;90.70;;;;;;5028277;28;20203;-82
2021/07/26 00:36:44;;;;;;;14.17;12.87;;;20.60;90.50;;;;;;5024499;28;20215;-83
2021/07/26 00:39:15;;;;;;;14.40;13.10;;;20.70;90.20;;;;;;5030399;28;20200;-85
2021/07/26 00:41:44;;;;;;;15.40;13.90;;;20.70;90.00;;;;;;5035787;28;20245;-82
2021/07/26 00:44:13;;;;;;;15.47;13.90;;;20.80;90.30;;;;;;5027075;28;20191;-84
2021/07/26 00:46:42;;;;;;;14.93;13.50;;;20.70;90.10;;;;;;5013503;28;20656;-88
2021/07/26 00:49:14;;;;;;;15.47;12.67;;;20.70;90.30;;;;;;5017059;28;20191;-84
2021/07/26 00:51:45;;;;;;;15.17;13.60;;;20.70;90.00;;;;;;5016434;28;20199;-86
2021/07/26 00:54:18;;;;;;;15.70;13.70;;;20.70;89.90;;;;;;5025681;28;20190;-81
2021/07/26 00:56:48;;;;;;;15.17;13.67;;;20.70;89.90;;;;;;5020039;28;20656;-82
2021/07/26 00:59:17;;;;;;;14.10;12.73;;;20.80;89.20;;;;;;5027989;28;20196;-83
2021/07/26 01:01:47;;;;;;;14.87;13.37;;;20.80;89.00;;;;;;5020962;28;20195;-85
2021/07/26 01:04:17;;;;;;;16.00;12.57;;;20.90;89.10;;;;;;5020023;28;20200;-80
2021/07/26 01:06:46;;;;;;;13.50;12.20;;;20.90;88.70;;;;;;5015757;28;20199;-84
2021/07/26 01:09:15;;;;;;;13.57;12.10;;;20.80;88.40;;;;;;5024307;28;20191;-84
2021/07/26 01:11:45;;;;;;;13.67;12.27;;;20.80;88.30;;;;;;5025968;28;20203;-83
2021/07/26 01:14:16;;;;;;;13.97;11.93;;;20.80;88.30;;;;;;5024454;28;20880;-81
2021/07/26 01:16:44;;;;;;;15.10;13.37;;;20.80;88.20;;;;;;5018950;28;20205;-81
2021/07/26 01:19:13;;;;;;;15.00;13.10;;;20.80;88.30;;;;;;5025770;28;20257;-82
2021/07/26 01:21:44;;;;;;;14.00;12.60;;;20.80;88.40;;;;;;5026140;28;20290;-85
2021/07/26 01:24:13;;;;;;;14.07;12.67;;;20.70;88.50;;;;;;5031635;28;20198;-84
2021/07/26 01:26:43;;;;;;;13.90;12.40;;;20.80;88.30;;;;;;5010574;28;20200;-83
2021/07/26 01:29:12;;;;;;;13.37;11.97;;;20.70;89.00;;;;;;5000436;28;20211;-83
2021/07/26 01:31:41;;;;;;;12.83;11.67;;;20.80;88.30;;;;;;5023997;28;20204;-82
2021/07/26 01:34:09;;;;;;;14.27;12.77;;;20.70;88.10;;;;;;5024037;28;20196;-81
2021/07/26 01:36:39;;;;;;;12.83;11.63;;;20.80;88.50;;;;;;5018947;28;20191;-82
2021/07/26 01:39:09;;;;;;;13.23;11.40;;;20.80;88.10;;;;;;5024014;28;20201;-81
2021/07/26 01:41:38;;;;;;;13.17;11.90;;;20.80;88.10;;;;;;5021477;28;20195;-83
2021/07/26 01:44:10;;;;;;;12.70;11.50;;;20.80;87.60;;;;;;5019993;28;20219;-84
2021/07/26 01:46:51;;;;;;;12.23;11.03;;;20.90;87.30;;;;;;5013876;28;20665;-82
2021/07/26 01:49:33;;;;;;;13.63;12.17;;;20.90;87.30;;;;;;5017490;28;20653;-83
2021/07/26 01:52:03;;;;;;;12.70;11.50;;;20.80;87.10;;;;;;5020452;28;20214;-82
2021/07/26 01:54:33;;;;;;;13.37;11.87;;;20.90;87.10;;;;;;5021549;28;20202;-85
2021/07/26 01:57:03;;;;;;;14.57;11.67;;;20.90;87.10;;;;;;5008559;28;20199;-84
2021/07/26 01:59:33;;;;;;;12.83;11.60;;;20.90;87.00;;;;;;5013020;28;20312;-82
2021/07/26 02:02:01;;;;;;;12.63;11.33;;;20.90;87.00;;;;;;5008345;28;20277;-83
2021/07/26 02:04:30;;;;;;;12.97;10.80;;;20.90;87.00;;;;;;5015507;28;20222;-82
2021/07/26 02:06:59;;;;;;;11.53;10.43;;;20.90;86.90;;;;;;5005450;28;20265;-84
2021/07/26 02:09:28;;;;;;;13.43;11.60;;;20.90;86.70;;;;;;5017696;28;20227;-86
2021/07/26 02:11:58;;;;;;;12.20;11.00;;;21.00;86.70;;;;;;5014570;28;20242;-84
2021/07/26 02:14:27;;;;;;;12.03;10.93;;;20.90;86.90;;;;;;5013807;28;20191;-85
2021/07/26 02:16:55;;;;;;;12.10;11.00;;;20.90;86.90;;;;;;5012314;28;20203;-82
2021/07/26 02:19:24;;;;;;;12.43;11.13;;;20.80;87.10;;;;;;5019394;28;20207;-83
2021/07/26 02:21:53;;;;;;;12.07;10.80;;;20.80;87.30;;;;;;5020653;28;20215;-81
2021/07/26 02:24:21;;;;;;;12.27;10.97;;;20.80;87.40;;;;;;5018471;28;20199;-83
2021/07/26 02:26:50;;;;;;;12.27;10.97;;;20.90;87.00;;;;;;5017250;28;20245;-81
2021/07/26 02:29:20;;;;;;;13.07;11.67;;;20.90;86.90;;;;;;5021791;28;20210;-83
2021/07/26 02:31:48;;;;;;;12.37;11.23;;;21.00;86.90;;;;;;5038160;28;20249;-81
2021/07/26 02:34:17;;;;;;;11.83;10.73;;;21.00;87.10;;;;;;5022003;28;20196;-83
2021/07/26 02:36:46;;;;;;;12.00;10.90;;;21.00;86.80;;;;;;5014297;28;20242;-82
2021/07/26 02:39:15;;;;;;;12.40;11.30;;;21.00;86.90;;;;;;5013692;28;20602;-82
2021/07/26 02:41:44;;;;;;;11.83;10.77;;;21.00;86.80;;;;;;5023493;28;20199;-82
2021/07/26 02:44:12;;;;;;;12.00;10.67;;;21.00;87.00;;;;;;5025895;28;20206;-83
2021/07/26 02:46:42;;;;;;;11.97;10.70;;;21.00;86.70;;;;;;5004916;28;20626;-82
2021/07/26 02:49:11;;;;;;;13.20;11.37;;;21.00;86.70;;;;;;5022132;28;20203;-82
2021/07/26 02:51:40;;;;;;;12.10;10.90;;;21.00;86.70;;;;;;5023601;28;20223;-84
2021/07/26 02:54:08;;;;;;;12.07;10.80;;;21.00;86.70;;;;;;5020411;28;20191;-84
2021/07/26 02:56:37;;;;;;;12.40;11.30;;;21.00;86.70;;;;;;5029227;28;20222;-83
2021/07/26 02:59:06;;;;;;;12.47;10.63;;;21.00;86.70;;;;;;5022271;28;20208;-86
2021/07/26 03:01:34;;;;;;;12.37;10.87;;;21.00;86.70;;;;;;5015003;28;20751;-82
2021/07/26 03:04:05;;;;;;;11.70;10.60;;;21.00;86.80;;;;;;5017455;28;20204;-83
2021/07/26 03:06:34;;;;;;;12.23;11.03;;;21.00;86.70;;;;;;5013660;28;20751;-84
2021/07/26 03:09:03;;;;;;;12.57;11.37;;;21.10;86.70;;;;;;5021646;28;20201;-83
2021/07/26 03:11:31;;;;;;;12.20;11.00;;;21.10;86.70;;;;;;5024684;28;20350;-82
2021/07/26 03:14:01;;;;;;;12.00;10.63;;;21.10;86.80;;;;;;5029313;28;20213;-84
2021/07/26 03:16:29;;;;;;;12.37;10.77;;;21.10;86.80;;;;;;5026938;28;20206;-84
2021/07/26 03:18:58;;;;;;;11.40;10.40;;;21.10;86.90;;;;;;5025969;28;20195;-82
2021/07/26 03:21:28;;;;;;;12.50;11.30;;;21.10;86.90;;;;;;5025924;28;20467;-83
2021/07/26 03:23:57;;;;;;;12.97;11.77;;;21.10;87.00;;;;;;5027538;28;20564;-82
2021/07/26 03:26:25;;;;;;;12.27;11.07;;;21.10;87.00;;;;;;5023694;28;20745;-85
2021/07/26 03:28:54;;;;;;;12.60;11.40;;;21.10;87.10;;;;;;5019967;28;20195;-83
2021/07/26 03:31:23;;;;;;;12.43;11.33;;;21.20;87.00;;;;;;5021791;28;20207;-81
2021/07/26 03:33:51;;;;;;;11.77;10.67;;;21.30;86.90;;;;;;5029232;28;20682;-83
2021/07/26 03:36:20;;;;;;;12.07;10.80;;;21.40;86.90;;;;;;5014511;28;20194;-82
2021/07/26 03:38:51;;;;;;;12.37;11.07;;;21.40;86.90;;;;;;5024444;28;20195;-82
2021/07/26 03:41:21;;;;;;;12.20;11.00;;;21.50;86.90;;;;;;5026864;28;20187;-82
2021/07/26 03:43:49;;;;;;;11.43;10.23;;;21.50;86.80;;;;;;5030889;28;20206;-83
2021/07/26 03:46:18;;;;;;;12.80;11.60;;;21.50;86.70;;;;;;5017896;28;20278;-84
2021/07/26 03:48:46;;;;;;;13.80;10.90;;;21.60;86.70;;;;;;5022230;28;20233;-83
2021/07/26 03:51:15;;;;;;;11.70;10.50;;;21.60;86.60;;;;;;5029914;28;20220;-85
2021/07/26 03:53:44;;;;;;;11.73;10.53;;;21.60;86.60;;;;;;5024172;28;20423;-81
2021/07/26 03:56:17;;;;;;;11.17;10.07;;;21.70;86.50;;;;;;5015907;28;20586;-83
2021/07/26 03:58:46;;;;;;;11.30;10.23;;;21.70;86.60;;;;;;5023686;28;20573;-82
2021/07/26 04:01:14;;;;;;;11.73;10.53;;;21.80;86.60;;;;;;5021595;28;20202;-83
2021/07/26 04:03:43;;;;;;;12.27;10.97;;;21.80;86.80;;;;;;5020544;28;20293;-83
2021/07/26 04:06:14;;;;;;;12.07;10.77;;;21.80;86.60;;;;;;5025396;28;20519;-82
2021/07/26 04:08:47;;;;;;;12.33;10.83;;;21.80;86.50;;;;;;5024531;28;20199;-82
2021/07/26 04:11:21;;;;;;;11.70;10.50;;;21.80;86.50;;;;;;5021265;28;20222;-82
2021/07/26 04:13:52;;;;;;;13.77;10.97;;;21.80;86.60;;;;;;5015536;28;20523;-81
2021/07/26 04:16:21;;;;;;;11.43;10.37;;;21.80;86.50;;;;;;5016875;28;20207;-82
2021/07/26 04:18:51;;;;;;;12.37;11.13;;;21.70;86.50;;;;;;5019903;28;20891;-82
2021/07/26 04:21:20;;;;;;;13.83;10.53;;;21.70;86.80;;;;;;5014007;28;20227;-84
2021/07/26 04:23:48;;;;;;;11.03;9.73;;;21.70;86.70;;;;;;5021250;28;20202;-84
2021/07/26 04:26:18;;;;;;;12.93;10.30;;;21.70;86.70;;;;;;5019958;28;20235;-82
2021/07/26 04:28:47;;;;;;;12.27;10.87;;;21.70;86.80;;;;;;5020480;28;20199;-84
2021/07/26 04:31:16;;;;;;;12.40;10.83;;;21.60;87.00;;;;;;5026282;28;20238;-82
2021/07/26 04:33:45;;;;;;;12.47;10.90;;;21.60;87.00;;;;;;5018097;28;20196;-84
2021/07/26 04:36:13;;;;;;;12.13;10.83;;;21.60;87.10;;;;;;5021309;28;20217;-82
2021/07/26 04:38:42;;;;;;;14.13;10.87;;;21.60;87.10;;;;;;5016308;28;20721;-83
2021/07/26 04:41:10;;;;;;;13.70;10.70;;;21.70;87.00;;;;;;5020185;28;20210;-85
2021/07/26 04:43:40;;;;;;;12.20;10.90;;;21.80;86.80;;;;;;5018539;28;20253;-83
2021/07/26 04:46:10;;;;;;;12.32;10.77;;;22.00;86.80;;;;;;5027172;28;20226;-85
2021/07/26 04:48:38;;;;;;;13.10;11.10;;;22.10;86.60;;;;;;5026247;28;20218;-83
2021/07/26 04:51:07;;;;;;;11.70;10.52;;;22.30;86.70;;;;;;5023772;28;20203;-84
2021/07/26 04:53:36;;;;;;;11.63;10.43;;;22.40;86.40;;;;;;4988695;28;20285;-85
2021/07/26 04:56:05;;;;;;;12.13;10.70;;;22.50;86.50;;;;;;5017951;28;20269;-83
2021/07/26 04:58:34;;;;;;;12.65;11.35;;;22.40;86.50;;;;;;5018592;28;20203;-84
2021/07/26 05:01:07;;;;;;;13.70;11.85;;;22.30;86.40;;;;;;5018038;28;20306;-82
2021/07/26 05:03:36;;;;;;;12.23;10.98;;;22.30;86.50;;;;;;5021391;28;20205;-82
2021/07/26 05:06:07;;;;;;;12.90;11.50;;;22.20;86.60;;;;;;5024626;28;20215;-83
2021/07/26 05:08:35;;;;;;;12.52;10.95;;;22.20;86.70;;;;;;5016955;28;20207;-86
2021/07/26 05:11:04;;;;;;;11.40;10.38;;;22.30;86.60;;;;;;5018776;28;20206;-84
2021/07/26 05:13:33;;;;;;;12.20;10.90;;;22.30;86.60;;;;;;5030206;28;20225;-85
2021/07/26 05:16:02;;;;;;;16.35;11.57;;;22.40;86.60;;;;;;5032333;28;20210;-85
2021/07/26 05:18:32;;;;;;;12.20;10.35;;;22.60;86.80;;;;;;5025991;28;20194;-84
2021/07/26 05:21:01;;;;;;;12.18;10.88;;;22.70;86.20;;;;;;5022030;28;20229;-81
2021/07/26 05:23:31;;;;;;;11.60;10.27;;;22.90;86.60;;;;;;5020319;28;20210;-84
2021/07/26 05:26:00;;;;;;;10.95;9.95;;;23.00;86.30;;;;;;5012203;28;20536;-84
2021/07/26 05:28:29;;;;;;;12.10;10.82;;;23.10;86.30;;;;;;5033230;28;20199;-87
2021/07/26 05:30:58;;;;;;;11.25;9.90;;;23.20;86.20;;;;;;5031220;28;20529;-85
2021/07/26 05:33:27;;;;;;;11.05;9.90;;;23.30;86.10;;;;;;5033049;28;20800;-83
2021/07/26 05:36:00;;;;;;;12.30;10.30;;;23.30;86.10;;;;;;5036015;28;20199;-84
2021/07/26 05:38:29;;;;;;;13.10;10.48;;;23.40;86.00;;;;;;5031153;28;20211;-83
2021/07/26 05:40:58;;;;;;;11.40;10.25;;;23.40;86.20;;;;;;5023237;28;20214;-82
2021/07/26 05:43:27;;;;;;;12.52;11.23;;;23.40;86.10;;;;;;5023159;28;20219;-83
2021/07/26 05:45:55;;;;;;;11.77;10.60;;;23.60;86.30;;;;;;5031408;28;20275;-84
2021/07/26 05:48:24;;;;;;;12.55;11.15;;;23.70;85.90;;;;;;5025590;28;20212;-82
2021/07/26 05:50:53;;;;;;;11.88;10.50;;;23.90;86.00;;;;;;5025239;28;20218;-82
2021/07/26 05:53:24;;;;;;;12.43;11.13;;;24.00;86.00;;;;;;5019290;28;20336;-83
2021/07/26 05:55:53;;;;;;;11.90;10.77;;;24.10;86.20;;;;;;5016801;28;20207;-84
2021/07/26 05:58:24;;;;;;;12.07;10.07;;;24.20;85.80;;;;;;5019870;28;20195;-82
2021/07/26 06:01:08;;;;;;;13.00;11.15;;;24.20;85.50;;;;;;5015601;28;20200;-82
2021/07/26 06:03:37;;;;;;;14.60;10.38;;;24.20;85.90;;;;;;5015837;28;20195;-83
2021/07/26 06:06:06;;;;;;;12.00;10.80;;;24.30;85.70;;;;;;5010342;28;20285;-84
2021/07/26 06:08:35;;;;;;;11.95;10.75;;;24.30;85.90;;;;;;5011994;28;20203;-79
2021/07/26 06:11:04;;;;;;;12.98;11.05;;;24.40;85.70;;;;;;5020683;28;20210;-84
2021/07/26 06:13:33;;;;;;;11.63;10.40;;;24.40;85.80;;;;;;5022405;28;20253;-81
2021/07/26 06:16:06;;;;;;;12.98;9.90;;;24.40;85.60;;;;;;5023121;28;20218;-81
2021/07/26 06:18:35;;;;;;;11.60;10.50;;;24.40;85.50;;;;;;5026285;28;20242;-82
2021/07/26 06:21:08;;;;;;;12.38;10.32;;;24.40;85.60;;;;;;5016830;28;20207;-83
2021/07/26 06:23:38;;;;;;;12.05;10.52;;;24.30;85.40;;;;;;5017718;28;20195;-84
2021/07/26 06:26:08;;;;;;;11.98;10.38;;;24.30;85.50;;;;;;5013249;28;20456;-84
2021/07/26 06:28:36;;;;;;;11.63;10.40;;;24.20;85.60;;;;;;5017568;28;20202;-81
2021/07/26 06:31:06;;;;;;;11.32;10.13;;;24.30;85.40;;;;;;5015665;28;21063;-83
2021/07/26 06:33:35;;;;;;;11.25;10.07;;;24.40;85.40;;;;;;5018847;28;20439;-85
2021/07/26 06:36:04;;;;;;;12.65;10.57;;;24.70;85.60;;;;;;5021275;28;20222;-79
2021/07/26 06:38:33;;;;;;;11.93;10.70;;;24.70;85.20;;;;;;5018989;28;20200;-84
2021/07/26 06:41:03;;;;;;;11.35;10.30;;;24.70;85.30;;;;;;5033230;28;20231;-83
2021/07/26 06:43:32;;;;;;;13.85;10.90;;;24.50;85.50;;;;;;5030163;28;20187;-83
2021/07/26 07:21:37;;;;;;;12.27;11.05;;;23.80;86.60;;;;;;4563535;31;20233;-82
2021/07/26 07:41:39;;;;;;;12.40;11.23;;;24.00;87.00;;;;;;4572886;31;20265;-84
2021/07/26 08:35:38;;;;;;;13.45;12.15;;;24.70;86.60;;;;;;4703224;29;20349;-83
2021/07/26 09:28:58;;;;;;;20.35;18.42;;;24.50;86.20;;;;;;4622021;30;20311;-84
2021/07/26 10:12:51;;;;;;;16.15;14.57;;;25.50;86.00;;;;;;4692106;30;20793;-83
2021/07/26 11:15:57;;;;;;;13.55;12.35;;;26.70;84.70;;;;;;4705816;30;20765;-82
2021/07/26 11:18:31;;;;;;;12.48;11.27;;;26.50;84.70;;;;;;4694626;30;21056;-82
2021/07/26 11:21:05;;;;;;;13.63;12.35;;;26.70;84.80;;;;;;4707832;30;21221;-82
2021/07/26 11:23:52;;;;;;;13.38;11.98;;;26.90;84.30;;;;;;4762470;29;20314;-82
2021/07/26 11:26:27;;;;;;;12.30;11.30;;;27.10;84.70;;;;;;4801227;29;20222;-83
2021/07/26 11:28:59;;;;;;;12.32;11.23;;;27.30;84.50;;;;;;4801935;29;20213;-85
2021/07/26 11:31:31;;;;;;;12.10;11.10;;;27.30;84.20;;;;;;4797946;29;20218;-84
2021/07/26 11:34:08;;;;;;;12.40;11.35;;;27.40;84.50;;;;;;4808846;29;20224;-82
2021/07/26 11:36:37;;;;;;;12.93;11.75;;;27.60;84.20;;;;;;4859315;29;20241;-84
2021/07/26 11:39:08;;;;;;;12.93;11.63;;;27.60;84.00;;;;;;4894819;28;21089;-82
2021/07/26 11:41:37;;;;;;;13.65;11.70;;;27.80;83.90;;;;;;4951497;28;20457;-83
2021/07/26 11:44:08;;;;;;;12.23;10.75;;;28.00;83.80;;;;;;4981758;28;21045;-84
2021/07/26 11:46:47;;;;;;;13.27;10.38;;;28.00;83.60;;;;;;4996116;28;20468;-81
2021/07/26 11:49:18;;;;;;;12.20;11.07;;;28.00;83.40;;;;;;4991198;28;21023;-82
2021/07/26 11:51:47;;;;;;;12.20;11.10;;;28.10;83.80;;;;;;5004312;28;20689;-82
2021/07/26 11:54:15;;;;;;;10.77;9.77;;;28.10;83.90;;;;;;5012293;28;20730;-79
2021/07/26 11:56:44;;;;;;;11.00;10.00;;;28.00;82.90;;;;;;5008958;28;20231;-84
2021/07/26 11:59:20;;;;;;;10.70;9.75;;;27.80;83.00;;;;;;5011395;28;20219;-84
2021/07/26 12:01:57;;;;;;;11.18;10.05;;;27.70;83.20;;;;;;4999498;28;20207;-82
2021/07/26 12:04:29;;;;;;;10.93;9.25;;;27.50;83.30;;;;;;5004243;28;20240;-85
2021/07/26 12:07:00;;;;;;;10.48;9.57;;;27.60;83.20;;;;;;4994133;28;20363;-85
2021/07/26 12:09:29;;;;;;;10.75;9.82;;;27.80;82.90;;;;;;4993284;28;20202;-84
2021/07/26 12:12:10;;;;;;;10.52;9.63;;;28.10;82.70;;;;;;4998955;28;20982;-82
2021/07/26 12:14:41;;;;;;;12.43;10.10;;;28.20;82.60;;;;;;5001638;28;20218;-83
2021/07/26 12:17:12;;;;;;;11.68;10.25;;;28.20;82.70;;;;;;4993538;28;20810;-82
2021/07/26 12:19:42;;;;;;;10.50;9.50;;;28.40;83.00;;;;;;4995712;28;20240;-82
2021/07/26 12:22:22;;;;;;;10.05;9.15;;;28.40;82.80;;;;;;4995873;28;20213;-84
2021/07/26 12:25:19;;;;;;;9.68;8.77;;;28.40;83.10;;;;;;5040353;28;20248;-82
2021/07/26 12:27:58;;;;;;;10.23;9.23;;;28.20;82.60;;;;;;5040973;28;20215;-84
2021/07/26 12:30:37;;;;;;;9.60;8.80;;;27.80;82.40;;;;;;5053963;28;20772;-84
2021/07/26 12:33:07;;;;;;;10.68;9.73;;;27.60;82.80;;;;;;5059050;28;20201;-83
2021/07/26 12:35:37;;;;;;;10.40;9.48;;;27.60;83.30;;;;;;5033175;28;20205;-83
2021/07/26 12:38:07;;;;;;;10.30;9.30;;;27.90;83.20;;;;;;5033390;28;20631;-82
2021/07/26 12:40:38;;;;;;;11.18;10.15;;;27.90;82.40;;;;;;5041158;28;20210;-83
2021/07/26 12:43:09;;;;;;;10.32;9.43;;;27.90;82.70;;;;;;5043537;28;20197;-82
2021/07/26 12:45:41;;;;;;;11.57;10.57;;;28.00;82.80;;;;;;5051134;28;20201;-81
2021/07/26 12:48:15;;;;;;;11.23;10.00;;;28.10;82.60;;;;;;5047416;28;20270;-82
2021/07/26 12:50:45;;;;;;;11.60;10.57;;;28.40;82.50;;;;;;5051788;28;20206;-85
2021/07/26 12:53:13;;;;;;;13.50;10.70;;;28.50;82.80;;;;;;5055933;28;20267;-81
2021/07/26 12:55:43;;;;;;;13.82;10.98;;;28.50;82.60;;;;;;5054363;28;20626;-83
2021/07/26 12:58:15;;;;;;;13.02;10.63;;;28.50;82.90;;;;;;5040137;28;21103;-85
2021/07/26 13:00:46;;;;;;;12.23;10.65;;;28.80;82.80;;;;;;5042721;28;21439;-84
2021/07/26 13:03:22;;;;;;;11.35;10.38;;;28.90;82.70;;;;;;5050941;28;20198;-79
2021/07/26 13:05:52;;;;;;;12.00;10.88;;;28.50;82.50;;;;;;5057827;28;20212;-82
2021/07/26 13:08:21;;;;;;;12.50;10.77;;;28.20;82.40;;;;;;5047257;28;20328;-83
2021/07/26 13:10:51;;;;;;;11.85;10.27;;;28.10;82.50;;;;;;5050889;28;20216;-81
2021/07/26 13:13:20;;;;;;;11.57;10.57;;;28.20;82.60;;;;;;5053699;28;20223;-83
2021/07/26 13:15:50;;;;;;;12.15;10.85;;;28.20;82.50;;;;;;5053389;28;20197;-81
2021/07/26 13:18:19;;;;;;;11.20;10.20;;;28.10;82.40;;;;;;5067436;28;20221;-85
2021/07/26 13:20:48;;;;;;;13.10;10.85;;;28.10;82.50;;;;;;5081297;28;20225;-84
2021/07/26 13:23:17;;;;;;;11.65;10.50;;;28.10;82.60;;;;;;5081306;28;20185;-82
2021/07/26 13:25:46;;;;;;;11.85;10.77;;;28.00;82.60;;;;;;5084566;28;20202;-84
2021/07/26 13:28:15;;;;;;;11.73;10.23;;;27.80;82.80;;;;;;5076608;28;20204;-83
2021/07/26 13:30:44;;;;;;;11.25;10.15;;;27.80;82.60;;;;;;5073460;28;21354;-85
2021/07/26 13:33:17;;;;;;;11.95;10.85;;;27.80;82.60;;;;;;5080077;28;20197;-81
2021/07/26 13:35:48;;;;;;;11.50;10.43;;;27.90;82.50;;;;;;5087586;28;20194;-82
2021/07/26 13:38:17;;;;;;;11.25;10.15;;;28.10;82.90;;;;;;5079022;28;20217;-81
2021/07/26 13:40:46;;;;;;;11.30;10.20;;;28.10;82.50;;;;;;5074719;28;20206;-83
2021/07/26 13:43:15;;;;;;;12.20;10.70;;;27.90;82.70;;;;;;5073795;28;20275;-85
2021/07/26 13:45:44;;;;;;;11.20;10.10;;;27.60;82.70;;;;;;5063499;28;20208;-79
2021/07/26 13:48:13;;;;;;;11.25;10.20;;;27.40;82.60;;;;;;5067796;28;20220;-84
2021/07/26 13:50:45;;;;;;;11.18;10.18;;;27.30;82.80;;;;;;5057329;28;20896;-83
2021/07/26 13:53:13;;;;;;;11.10;10.10;;;27.10;82.90;;;;;;5061198;28;20212;-84
2021/07/26 13:55:42;;;;;;;11.65;10.50;;;27.10;83.00;;;;;;5069167;28;20256;-82
2021/07/26 13:58:11;;;;;;;9.07;8.27;;;27.10;83.00;;;;;;5063645;28;20221;-82
2021/07/26 14:00:39;;;;;;;4.90;3.65;;;27.10;82.80;;;;;;5071990;28;20628;-80
2021/07/26 14:03:08;;;;;;;4.95;3.28;;;26.40;82.50;;;;;;5067438;28;20206;-83
2021/07/26 14:05:38;;;;;;;3.42;2.65;;;25.50;83.00;;;;;;5067582;28;20217;-80
2021/07/26 14:08:08;;;;;;;2.85;2.15;;;24.70;83.70;;;;;;5063813;28;20223;-81
2021/07/26 14:10:38;;;;;;;4.47;2.97;;;24.00;84.60;;;;;;5072329;28;20248;-80
2021/07/26 14:13:07;;;;;;;3.60;3.00;;;23.50;85.60;;;;;;5070201;28;21562;-82
2021/07/26 14:15:36;;;;;;;5.60;4.40;;;23.20;86.60;;;;;;5066607;28;20330;-83
2021/07/26 14:18:09;;;;;;;6.22;4.72;;;23.00;88.50;;;;;;5065330;28;20565;-85
2021/07/26 14:20:37;;;;;;;5.22;4.40;;;22.80;90.50;;;;;;5071364;28;20319;-83
2021/07/26 14:23:06;;;;;;;6.35;4.43;;;22.40;91.30;;;;;;5060192;28;20205;-82
2021/07/26 14:25:36;;;;;;;5.25;4.50;;;22.00;92.00;;;;;;5054320;28;20194;-85
2021/07/26 14:28:06;;;;;;;6.65;4.55;;;21.70;93.10;;;;;;5056498;28;20209;-80
2021/07/26 14:30:35;;;;;;;10.20;6.35;;;21.50;94.50;;;;;;5057536;28;20209;-83
2021/07/26 14:33:04;;;;;;;10.63;5.83;;;21.30;96.80;;;;;;5071456;28;20221;-84
2021/07/26 14:35:33;;;;;;;7.00;6.13;;;21.10;99.30;;;;;;5057170;28;20651;-83
2021/07/26 14:38:04;;;;;;;10.03;6.17;;;20.90;99.90;;;;;;5056899;28;20291;-84
2021/07/26 14:40:33;;;;;;;9.53;7.00;;;20.70;99.90;;;;;;5072765;28;20263;-80
2021/07/26 14:43:04;;;;;;;9.30;7.23;;;20.50;99.90;;;;;;5077813;28;20270;-80
2021/07/26 14:45:35;;;;;;;10.53;7.30;;;20.40;99.90;;;;;;5076043;28;20312;-82
2021/07/26 14:48:17;;;;;;;9.30;8.30;;;20.30;99.90;;;;;;5073239;28;20225;-82
2021/07/26 14:50:46;;;;;;;9.63;7.10;;;20.40;99.90;;;;;;5069469;28;20201;-84
2021/07/26 14:53:20;;;;;;;12.60;7.00;;;20.30;99.90;;;;;;5074810;28;20201;-82
2021/07/26 14:55:49;;;;;;;10.07;7.50;;;20.10;99.90;;;;;;5050447;28;20209;-83
2021/07/26 14:58:19;;;;;;;9.97;7.93;;;20.00;99.90;;;;;;5047915;28;20249;-81
2021/07/26 15:00:49;;;;;;;10.13;8.93;;;20.00;99.90;;;;;;5052472;28;20301;-80
2021/07/26 15:03:22;;;;;;;10.20;8.70;;;20.00;99.90;;;;;;5056013;28;20198;-82
2021/07/26 15:05:52;;;;;;;11.63;9.40;;;20.20;99.90;;;;;;5050500;28;20206;-82
2021/07/26 15:08:25;;;;;;;9.40;8.50;;;20.30;99.90;;;;;;5050093;28;20211;-82
2021/07/26 15:11:01;;;;;;;9.40;8.37;;;20.40;99.90;;;;;;5055098;28;20197;-80
2021/07/26 15:13:31;;;;;;;10.23;8.90;;;20.30;99.90;;;;;;5066448;28;20186;-80
2021/07/26 15:16:00;;;;;;;10.50;8.80;;;20.30;99.90;;;;;;5057441;28;20194;-80
2021/07/26 15:18:29;;;;;;;10.83;9.73;;;20.40;99.90;;;;;;5057423;28;20224;-83
2021/07/26 15:20:58;;;;;;;12.30;10.60;;;20.60;99.90;;;;;;5060923;28;20186;-79
2021/07/26 15:23:29;;;;;;;11.40;10.20;;;20.80;99.90;;;;;;5059343;28;20620;-81
2021/07/26 15:25:57;;;;;;;10.57;9.57;;;20.90;99.90;;;;;;5053110;28;20422;-80
2021/07/26 15:28:26;;;;;;;10.33;9.17;;;20.90;99.90;;;;;;5051680;28;21006;-83
2021/07/26 15:30:56;;;;;;;9.43;8.53;;;20.90;99.90;;;;;;5055120;28;20517;-81
2021/07/26 15:33:26;;;;;;;10.13;9.13;;;20.80;99.90;;;;;;5057934;28;20205;-83
2021/07/26 15:35:55;;;;;;;11.37;9.80;;;20.90;99.90;;;;;;5058765;28;20210;-80
2021/07/26 15:38:24;;;;;;;11.10;10.00;;;21.00;99.90;;;;;;5050282;28;20213;-83
2021/07/26 15:40:52;;;;;;;13.23;10.70;;;21.20;99.90;;;;;;5053082;28;20214;-80
2021/07/26 15:43:21;;;;;;;11.07;9.97;;;21.30;99.90;;;;;;5055503;28;20194;-83
2021/07/26 15:45:50;;;;;;;10.15;9.15;;;21.40;99.90;;;;;;5062386;28;20205;-84
2021/07/26 15:48:20;;;;;;;10.13;9.23;;;21.40;99.90;;;;;;5059614;28;20193;-82
2021/07/26 15:50:53;;;;;;;10.60;9.45;;;21.40;99.90;;;;;;5063221;28;20562;-80
2021/07/26 15:53:23;;;;;;;10.18;9.18;;;21.50;99.90;;;;;;5065746;28;20190;-79
2021/07/26 15:55:52;;;;;;;10.90;9.82;;;21.60;99.90;;;;;;5052330;28;20800;-82
2021/07/26 15:58:21;;;;;;;10.85;9.32;;;21.50;99.90;;;;;;5050908;28;20202;-80
2021/07/26 16:00:50;;;;;;;10.35;8.90;;;21.40;99.90;;;;;;5051173;28;20221;-80
2021/07/26 16:03:20;;;;;;;10.30;9.25;;;21.50;99.90;;;;;;5049165;28;20720;-81
2021/07/26 16:05:49;;;;;;;14.40;10.35;;;21.60;99.90;;;;;;5046448;28;20237;-83
2021/07/26 16:08:18;;;;;;;10.50;9.50;;;21.60;99.90;;;;;;5045063;28;20202;-85
2021/07/26 16:10:47;;;;;;;9.45;8.55;;;21.70;99.90;;;;;;5047872;28;20198;-80
2021/07/26 16:13:17;;;;;;;13.63;8.68;;;21.70;99.90;;;;;;5044298;28;20205;-83
2021/07/26 16:15:46;;;;;;;11.63;8.38;;;21.80;99.90;;;;;;5041350;28;20205;-85
2021/07/26 16:18:15;;;;;;;8.82;7.72;;;21.90;99.90;;;;;;5036012;28;20213;-81
2021/07/26 16:20:46;;;;;;;8.73;7.93;;;22.00;99.90;;;;;;5049075;28;20287;-86
2021/07/26 16:23:16;;;;;;;8.38;7.60;;;22.00;99.90;;;;;;5049771;28;20232;-81
2021/07/26 16:25:48;;;;;;;9.10;7.72;;;22.00;99.90;;;;;;5059721;28;20202;-85
2021/07/26 16:28:17;;;;;;;8.43;7.60;;;21.90;99.90;;;;;;5061912;28;20205;-84
2021/07/26 16:30:48;;;;;;;8.52;7.70;;;22.00;99.90;;;;;;5059424;28;20194;-81
2021/07/26 16:33:16;;;;;;;8.55;7.75;;;21.90;99.90;;;;;;5061036;28;20204;-83
2021/07/26 16:35:48;;;;;;;8.82;8.02;;;22.00;99.90;;;;;;5052288;28;20206;-83
2021/07/26 16:38:17;;;;;;;8.95;8.15;;;21.90;99.90;;;;;;5043457;28;20194;-82
2021/07/26 16:40:48;;;;;;;8.90;8.00;;;21.80;99.90;;;;;;5053292;28;20225;-82
2021/07/26 16:43:18;;;;;;;9.75;7.72;;;21.80;99.90;;;;;;5054688;28;20209;-82
2021/07/26 16:45:46;;;;;;;9.15;8.25;;;21.70;99.90;;;;;;5052364;28;20214;-84
2021/07/26 16:48:15;;;;;;;8.93;8.13;;;21.60;99.90;;;;;;5045511;28;21023;-83
2021/07/26 16:50:44;;;;;;;9.02;7.82;;;21.60;99.90;;;;;;5068133;28;20185;-82
2021/07/26 16:53:16;;;;;;;9.55;8.65;;;21.60;99.90;;;;;;5051696;28;20205;-83
2021/07/26 16:55:45;;;;;;;9.32;8.50;;;21.60;99.90;;;;;;5053388;28;20233;-81
2021/07/26 16:58:14;;;;;;;9.32;8.43;;;21.60;99.90;;;;;;5053137;28;20218;-81
2021/07/26 17:00:43;;;;;;;10.45;8.45;;;21.60;99.90;;;;;;5049546;28;20232;-84
2021/07/26 17:03:13;;;;;;;10.20;9.18;;;21.60;99.90;;;;;;5046430;28;20210;-84